createdAt,value
2023-03-05T00:01:36.464Z,102043.16
2023-03-05T00:04:14.091Z,102040.84
2023-03-05T00:06:46.230Z,102039.13
2023-03-05T00:09:18.206Z,102042.53
2023-03-05T00:11:50.272Z,102040.34
2023-03-05T00:14:22.602Z,102039.34
2023-03-05T00:16:54.585Z,102046.16
2023-03-05T00:19:26.570Z,102031.25
2023-03-05T00:21:58.639Z,102037.41
2023-03-05T00:24:30.602Z,102037.00
2023-03-05T00:27:02.693Z,102036.31
2023-03-05T00:29:34.697Z,102038.91
2023-03-05T00:32:06.830Z,102031.59
2023-03-05T00:34:38.792Z,102034.31
2023-03-05T00:37:10.935Z,102024.03
2023-03-05T00:39:43.029Z,102007.22
2023-03-05T00:42:14.963Z,102018.19
2023-03-05T00:44:46.901Z,102022.31
2023-03-05T00:47:19.117Z,102014.41
2023-03-05T00:49:51.067Z,101997.88
2023-03-05T00:52:23.088Z,102008.34
2023-03-05T00:54:55.128Z,102002.50
2023-03-05T00:57:27.059Z,102008.94
2023-03-05T00:59:59.045Z,102007.25
2023-03-05T01:02:33.211Z,102007.13
2023-03-05T01:05:07.657Z,102001.81
2023-03-05T01:07:39.840Z,101995.50
2023-03-05T01:10:13.134Z,101996.28
2023-03-05T01:12:45.143Z,101984.22
2023-03-05T01:15:17.101Z,101989.81
2023-03-05T01:17:49.098Z,101996.16
2023-03-05T01:20:23.392Z,101984.78
2023-03-05T01:22:55.437Z,101977.56
2023-03-05T01:25:28.240Z,101975.75
2023-03-05T01:28:00.544Z,101972.34
2023-03-05T01:30:32.815Z,101968.72
2023-03-05T01:33:04.824Z,101965.31
2023-03-05T01:35:36.809Z,101957.66
2023-03-05T01:38:09.192Z,101967.09
2023-03-05T01:40:43.641Z,101958.66
2023-03-05T01:43:26.025Z,101963.88
2023-03-05T01:46:16.863Z,101960.88
2023-03-05T01:49:23.093Z,101948.22
2023-03-05T01:52:18.197Z,101946.78
2023-03-05T01:54:59.714Z,101925.59
2023-03-05T01:57:50.615Z,101934.56
2023-03-05T02:00:45.947Z,101935.16
2023-03-05T02:03:18.529Z,101926.50
2023-03-05T02:05:50.565Z,101921.38
2023-03-05T02:08:23.016Z,101915.53
2023-03-05T02:10:56.626Z,101916.25
2023-03-05T02:13:33.886Z,101912.00
2023-03-05T02:16:06.717Z,101911.09
2023-03-05T02:18:38.675Z,101904.28
2023-03-05T02:21:11.748Z,101905.38
2023-03-05T02:23:43.672Z,101902.97
2023-03-05T02:26:15.646Z,101899.63
2023-03-05T02:28:55.896Z,101884.75
2023-03-05T02:31:28.177Z,101893.50
2023-03-05T02:34:00.349Z,101891.06
2023-03-05T02:36:32.861Z,101884.25
2023-03-05T02:39:05.258Z,101884.06
2023-03-05T02:41:37.484Z,101886.25
2023-03-05T02:44:09.896Z,101880.22
2023-03-05T02:46:41.909Z,101874.81
2023-03-05T02:49:14.024Z,101875.91
2023-03-05T02:51:45.956Z,101877.22
2023-03-05T02:54:17.988Z,101873.72
2023-03-05T02:56:50.580Z,101868.19
2023-03-05T02:59:22.508Z,101857.25
2023-03-05T03:01:54.460Z,101864.19
2023-03-05T03:04:26.507Z,101862.47
2023-03-05T03:06:58.570Z,101853.81
2023-03-05T03:09:30.757Z,101855.25
2023-03-05T03:12:04.274Z,101850.72
2023-03-05T03:14:41.252Z,101830.84
2023-03-05T03:17:17.287Z,101844.47
2023-03-05T03:19:49.265Z,101840.88
2023-03-05T03:22:21.367Z,101831.81
2023-03-05T03:24:53.888Z,101829.91
2023-03-05T03:27:25.849Z,101783.53
2023-03-05T03:30:02.589Z,101833.66
2023-03-05T03:32:35.077Z,101829.63
2023-03-05T03:35:07.968Z,101810.97
2023-03-05T03:37:40.421Z,101824.22
2023-03-05T03:40:12.920Z,101818.31
2023-03-05T03:42:44.893Z,101808.50
2023-03-05T03:45:17.000Z,101797.03
2023-03-05T03:47:51.135Z,101796.97
2023-03-05T03:50:25.057Z,101807.59
2023-03-05T03:52:57.106Z,101799.84
2023-03-05T03:55:29.122Z,101799.06
2023-03-05T03:58:01.472Z,101792.84
2023-03-05T04:00:33.406Z,101790.00
2023-03-05T04:03:05.520Z,101789.22
2023-03-05T04:05:37.430Z,101788.22
2023-03-05T04:08:12.140Z,101776.34
2023-03-05T04:10:44.194Z,101787.91
2023-03-05T04:13:16.177Z,101792.22
2023-03-05T04:15:48.200Z,101789.59
2023-03-05T04:18:20.830Z,101791.41
2023-03-05T04:20:52.886Z,101779.16
2023-03-05T04:23:25.352Z,101773.25
2023-03-05T04:25:57.604Z,101776.66
2023-03-05T04:28:29.601Z,101773.94
2023-03-05T04:31:01.671Z,101764.31
2023-03-05T04:33:34.030Z,101764.41
2023-03-05T04:36:06.974Z,101753.06
2023-03-05T04:38:38.875Z,101753.38
2023-03-05T04:41:10.846Z,101765.81
2023-03-05T04:43:42.837Z,101759.31
2023-03-05T04:46:14.818Z,101743.66
2023-03-05T04:48:46.843Z,101759.59
2023-03-05T04:51:18.840Z,101750.06
2023-03-05T04:53:51.020Z,101749.84
2023-03-05T04:56:23.070Z,101757.38
2023-03-05T04:58:55.028Z,101749.47
2023-03-05T05:01:26.996Z,101738.31
2023-03-05T05:03:58.952Z,101749.34
2023-03-05T05:06:30.919Z,101737.47
2023-03-05T05:09:02.982Z,101743.81
2023-03-05T05:11:35.007Z,101740.31
2023-03-05T05:14:07.491Z,101735.91
2023-03-05T05:16:39.512Z,101721.53
2023-03-05T05:19:11.753Z,101731.19
2023-03-05T05:21:43.843Z,101731.19
2023-03-05T05:24:15.764Z,101727.94
2023-03-05T05:26:47.703Z,101731.78
2023-03-05T05:29:19.606Z,101725.13
2023-03-05T05:31:53.274Z,101733.41
2023-03-05T05:34:25.917Z,101731.66
2023-03-05T05:36:57.943Z,101731.59
2023-03-05T05:39:29.876Z,101721.22
2023-03-05T05:42:02.017Z,101728.38
2023-03-05T05:44:35.056Z,101717.94
2023-03-05T05:47:07.207Z,101717.13
2023-03-05T05:49:39.178Z,101722.34
2023-03-05T05:52:11.614Z,101726.97
2023-03-05T05:54:43.633Z,101721.34
2023-03-05T05:57:16.019Z,101717.94
2023-03-05T05:59:47.991Z,101705.56
2023-03-05T06:02:20.254Z,101709.19
2023-03-05T06:04:52.202Z,101695.44
2023-03-05T06:07:24.240Z,101706.69
2023-03-05T06:09:56.127Z,101695.06
2023-03-05T06:12:28.116Z,101690.44
2023-03-05T06:15:00.045Z,101698.25
2023-03-05T06:17:31.990Z,101686.59
2023-03-05T06:20:06.808Z,101688.34
2023-03-05T06:22:40.345Z,101671.16
2023-03-05T06:25:13.147Z,101684.69
2023-03-05T06:27:45.129Z,101683.72
2023-03-05T06:30:17.206Z,101688.72
2023-03-05T06:32:49.159Z,101680.19
2023-03-05T06:35:22.057Z,101685.63
2023-03-05T06:37:54.019Z,101681.09
2023-03-05T06:40:26.056Z,101685.81
2023-03-05T06:42:57.996Z,101685.63
2023-03-05T06:45:29.991Z,101678.78
2023-03-05T06:48:02.066Z,101691.16
2023-03-05T06:50:37.698Z,101683.59
2023-03-05T06:53:09.628Z,101686.59
2023-03-05T06:55:41.537Z,101696.13
2023-03-05T06:58:13.524Z,101688.03
2023-03-05T07:00:45.502Z,101689.31
2023-03-05T07:03:17.396Z,101687.72
2023-03-05T07:05:49.500Z,101694.63
2023-03-05T07:08:21.426Z,101696.63
2023-03-05T07:10:53.414Z,101693.25
2023-03-05T07:13:25.882Z,101681.59
2023-03-05T07:15:57.936Z,101688.22
2023-03-05T07:18:29.953Z,101693.31
2023-03-05T07:21:04.699Z,101694.44
2023-03-05T07:23:37.194Z,101683.59
2023-03-05T07:26:09.178Z,101682.81
2023-03-05T07:28:41.746Z,101677.78
2023-03-05T07:31:19.352Z,101659.13
2023-03-05T07:33:51.617Z,101672.97
2023-03-05T07:36:24.093Z,101664.34
2023-03-05T07:38:56.158Z,101680.50
2023-03-05T07:41:28.237Z,101677.31
2023-03-05T07:44:00.323Z,101676.38
2023-03-05T07:46:34.446Z,101680.09
2023-03-05T07:49:06.469Z,101680.91
2023-03-05T07:51:40.404Z,101681.41
2023-03-05T07:54:12.442Z,101674.97
2023-03-05T07:56:44.420Z,101674.97
2023-03-05T07:59:16.529Z,101670.16
2023-03-05T08:01:48.522Z,101675.34
2023-03-05T08:04:20.507Z,101666.91
2023-03-05T08:06:52.559Z,101656.69
2023-03-05T08:09:24.534Z,101649.25
2023-03-05T08:11:56.809Z,101642.31
2023-03-05T08:14:28.987Z,101661.06
2023-03-05T08:17:00.854Z,101665.31
2023-03-05T08:19:33.616Z,101659.59
2023-03-05T08:22:05.999Z,101662.31
2023-03-05T08:24:38.165Z,101657.09
2023-03-05T08:27:10.122Z,101646.84
2023-03-05T08:29:42.113Z,101645.22
2023-03-05T08:32:14.115Z,101648.63
2023-03-05T08:34:46.921Z,101646.00
2023-03-05T08:37:18.861Z,101629.19
2023-03-05T08:39:51.126Z,101644.75
2023-03-05T08:42:23.959Z,101630.97
2023-03-05T08:44:55.951Z,101632.56
2023-03-05T08:47:28.241Z,101634.72
2023-03-05T08:50:00.215Z,101620.97
2023-03-05T08:52:32.166Z,101623.84
2023-03-05T08:55:04.603Z,101622.31
2023-03-05T08:57:36.524Z,101619.63
2023-03-05T09:00:10.468Z,101613.63
2023-03-05T09:02:42.464Z,101615.31
2023-03-05T09:05:14.550Z,101612.47
2023-03-05T09:07:46.621Z,101616.81
2023-03-05T09:10:19.224Z,101612.47
2023-03-05T09:12:51.176Z,101613.47
2023-03-05T09:15:23.353Z,101607.06
2023-03-05T09:17:55.282Z,101612.47
2023-03-05T09:20:27.578Z,101606.88
2023-03-05T09:22:59.507Z,101604.00
2023-03-05T09:25:31.523Z,101601.19
2023-03-05T09:28:03.565Z,101605.09
2023-03-05T09:30:36.224Z,101592.94
2023-03-05T09:33:08.468Z,101591.13
2023-03-05T09:35:40.772Z,101586.19
2023-03-05T09:38:12.782Z,101584.03
2023-03-05T09:40:55.380Z,101588.53
2023-03-05T09:44:14.930Z,101578.88
2023-03-05T09:47:03.417Z,101578.59
2023-03-05T09:50:01.438Z,101579.50
2023-03-05T09:53:01.935Z,101577.56
2023-03-05T09:56:17.421Z,101575.53
2023-03-05T09:59:29.418Z,101558.31
2023-03-05T10:02:17.250Z,101564.88
2023-03-05T10:05:18.309Z,101571.09
2023-03-05T10:08:01.227Z,101566.06
2023-03-05T10:10:47.115Z,101551.63
2023-03-05T10:13:26.382Z,101555.66
2023-03-05T10:16:44.993Z,101556.00
2023-03-05T10:20:04.499Z,101552.03
2023-03-05T10:23:25.722Z,101548.88
2023-03-05T10:26:12.518Z,101545.69
2023-03-05T10:29:23.221Z,101542.28
2023-03-05T10:32:01.832Z,101540.72
2023-03-05T10:35:24.704Z,101535.72
2023-03-05T10:38:13.898Z,101536.25
2023-03-05T10:40:55.730Z,101515.16
2023-03-05T10:44:08.843Z,101517.47
2023-03-05T10:46:41.551Z,101526.59
2023-03-05T10:49:13.426Z,101513.44
2023-03-05T10:51:54.152Z,101515.00
2023-03-05T10:54:35.878Z,101520.72
2023-03-05T10:57:18.442Z,101528.13
2023-03-05T11:00:19.949Z,101529.66
2023-03-05T11:03:02.544Z,101532.09
2023-03-05T11:05:45.125Z,101531.63
2023-03-05T11:08:36.432Z,101528.13
2023-03-05T11:11:21.149Z,101519.91
2023-03-05T11:14:03.858Z,101514.78
2023-03-05T11:16:49.460Z,101506.78
2023-03-05T11:19:32.872Z,101508.56
2023-03-05T11:22:22.185Z,101496.66
2023-03-05T11:25:16.093Z,101487.53
2023-03-05T11:27:54.989Z,101474.41
2023-03-05T11:30:31.118Z,101483.31
2023-03-05T11:33:20.818Z,101475.16
2023-03-05T11:36:25.562Z,101470.25
2023-03-05T11:39:22.488Z,101459.59
2023-03-05T11:42:03.905Z,101477.41
2023-03-05T11:44:51.494Z,101464.56
2023-03-05T11:47:32.200Z,101461.13
2023-03-05T11:50:28.690Z,101455.75
2023-03-05T11:53:13.546Z,101458.88
2023-03-05T11:55:52.829Z,101437.28
2023-03-05T11:58:34.316Z,101446.94
2023-03-05T12:01:22.443Z,101441.53
2023-03-05T12:03:55.765Z,101429.75
2023-03-05T12:06:43.211Z,101415.25
2023-03-05T12:09:28.613Z,101416.50
2023-03-05T12:12:26.422Z,101414.59
2023-03-05T12:15:19.027Z,101407.50
2023-03-05T12:18:02.926Z,101404.38
2023-03-05T12:21:13.760Z,101390.66
2023-03-05T12:24:01.724Z,101386.66
2023-03-05T12:27:04.883Z,101381.56
2023-03-05T12:29:54.422Z,101375.28
2023-03-05T12:32:28.863Z,101375.53
2023-03-05T12:35:05.751Z,101376.59
2023-03-05T12:37:44.050Z,101374.72
2023-03-05T12:40:28.235Z,101368.59
2023-03-05T12:43:31.610Z,101366.47
2023-03-05T12:46:26.884Z,101358.34
2023-03-05T12:48:59.635Z,101344.47
2023-03-05T12:51:41.747Z,101339.53
2023-03-05T12:54:33.611Z,101333.25
2023-03-05T12:57:21.391Z,101334.47
2023-03-05T13:00:11.035Z,101332.75
2023-03-05T13:02:48.605Z,101330.22
2023-03-05T13:05:29.461Z,101322.69
2023-03-05T13:08:23.343Z,101315.09
2023-03-05T13:11:09.370Z,101310.44
2023-03-05T13:13:47.234Z,101302.81
2023-03-05T13:16:36.703Z,101293.34
2023-03-05T13:19:18.092Z,101289.63
2023-03-05T13:22:03.366Z,101288.44
2023-03-05T13:24:35.437Z,101291.75
2023-03-05T13:27:30.946Z,101286.69
2023-03-05T13:30:02.923Z,101285.22
2023-03-05T13:32:35.207Z,101271.28
2023-03-05T13:35:13.428Z,101273.84
2023-03-05T13:37:45.436Z,101270.84
2023-03-05T13:40:28.505Z,101275.72
2023-03-05T13:43:20.594Z,101269.47
2023-03-05T13:45:57.161Z,101257.53
2023-03-05T13:48:29.210Z,101259.13
2023-03-05T13:51:01.219Z,101251.84
2023-03-05T13:53:34.644Z,101249.06
2023-03-05T13:56:14.818Z,101239.63
2023-03-05T13:58:57.928Z,101239.91
2023-03-05T14:01:46.302Z,101232.81
2023-03-05T14:04:26.164Z,101223.00
2023-03-05T14:07:07.383Z,101222.50
2023-03-05T14:09:39.253Z,101228.97
2023-03-05T14:12:46.528Z,101217.25
2023-03-05T14:15:35.453Z,101203.59
2023-03-05T14:18:13.113Z,101210.97
2023-03-05T14:21:11.585Z,101203.91
2023-03-05T14:23:49.550Z,101205.41
2023-03-05T14:26:33.799Z,101201.88
2023-03-05T14:29:11.266Z,101203.13
2023-03-05T14:32:02.750Z,101196.09
2023-03-05T14:34:40.932Z,101194.03
2023-03-05T14:37:25.741Z,101187.41
2023-03-05T14:40:12.876Z,101189.72
2023-03-05T14:42:54.520Z,101176.84
2023-03-05T14:45:40.032Z,101186.19
2023-03-05T14:48:17.563Z,101176.03
2023-03-05T14:50:56.507Z,101173.28
2023-03-05T14:53:47.281Z,101172.97
2023-03-05T14:56:28.548Z,101167.72
2023-03-05T14:59:00.540Z,101158.59
2023-03-05T15:01:32.525Z,101145.06
2023-03-05T15:04:04.746Z,101150.50
2023-03-05T15:06:40.937Z,101153.22
2023-03-05T15:09:13.030Z,101152.03
2023-03-05T15:11:46.058Z,101145.78
2023-03-05T15:14:18.174Z,101138.69
2023-03-05T15:16:50.317Z,101144.22
2023-03-05T15:19:22.265Z,101133.75
2023-03-05T15:21:54.198Z,101143.41
2023-03-05T15:24:26.237Z,101129.41
2023-03-05T15:26:58.186Z,101128.50
2023-03-05T15:29:30.153Z,101127.28
2023-03-05T15:32:02.470Z,101122.72
2023-03-05T15:34:35.436Z,101115.53
2023-03-05T15:37:07.552Z,101114.34
2023-03-05T15:39:39.505Z,101110.00
2023-03-05T15:42:11.559Z,101096.00
2023-03-05T15:44:43.480Z,101099.06
2023-03-05T15:47:15.421Z,101095.63
2023-03-05T15:49:47.438Z,101096.53
2023-03-05T15:52:19.411Z,101097.31
2023-03-05T15:54:51.835Z,101092.66
2023-03-05T15:57:24.015Z,101086.97
2023-03-05T15:59:56.179Z,101069.03
2023-03-05T16:02:28.063Z,101087.72
2023-03-05T16:05:00.106Z,101079.78
2023-03-05T16:07:36.417Z,101075.16
2023-03-05T16:10:14.843Z,101067.16
2023-03-05T16:12:50.990Z,101058.47
2023-03-05T16:15:24.279Z,101069.19
2023-03-05T16:18:00.736Z,101058.66
2023-03-05T16:20:32.794Z,101059.38
2023-03-05T16:23:05.876Z,101056.03
2023-03-05T16:25:38.177Z,101028.38
2023-03-05T16:28:10.883Z,101052.72
2023-03-05T16:30:43.416Z,101051.81
2023-03-05T16:33:15.356Z,101055.06
2023-03-05T16:35:47.901Z,101040.88
2023-03-05T16:38:19.841Z,101042.50
2023-03-05T16:41:07.369Z,101043.41
2023-03-05T16:43:40.371Z,101035.69
2023-03-05T16:46:14.624Z,101034.22
2023-03-05T16:48:46.706Z,101033.47
2023-03-05T16:51:20.794Z,101033.47
2023-03-05T16:53:54.528Z,101029.91
2023-03-05T16:56:28.714Z,101037.75
2023-03-05T16:59:00.850Z,101034.22
2023-03-05T17:01:33.070Z,101035.78
2023-03-05T17:04:05.444Z,101045.47
2023-03-05T17:06:37.882Z,101040.09
2023-03-05T17:09:09.835Z,101043.34
2023-03-05T17:11:41.804Z,101034.72
2023-03-05T17:14:13.789Z,101034.97
2023-03-05T17:16:46.044Z,101044.50
2023-03-05T17:19:18.757Z,101021.03
2023-03-05T17:21:52.342Z,101036.84
2023-03-05T17:24:24.366Z,101031.13
2023-03-05T17:26:56.424Z,101034.81
2023-03-05T17:29:29.171Z,101036.69
2023-03-05T17:32:01.388Z,101033.28
2023-03-05T17:34:36.711Z,101026.56
2023-03-05T17:37:08.968Z,101030.16
2023-03-05T17:39:40.890Z,101024.94
2023-03-05T17:42:15.664Z,101025.91
2023-03-05T17:47:23.278Z,101019.22
2023-03-05T17:49:55.317Z,101021.56
2023-03-05T17:52:27.444Z,101022.66
2023-03-05T17:55:00.246Z,101021.81
2023-03-05T17:57:32.190Z,101017.44
2023-03-05T18:00:31.480Z,101027.78
2023-03-05T18:03:04.348Z,101034.88
2023-03-05T18:05:37.205Z,101029.00
2023-03-05T18:08:09.289Z,101020.47
2023-03-05T18:10:41.262Z,101023.28
2023-03-05T18:13:13.260Z,101018.97
2023-03-05T18:15:47.753Z,101021.34
2023-03-05T18:18:19.853Z,101020.97
2023-03-05T18:20:51.835Z,101016.91
2023-03-05T18:23:23.868Z,101024.94
2023-03-05T18:25:55.826Z,101004.53
2023-03-05T18:28:27.977Z,101009.47
2023-03-05T18:31:00.964Z,101015.81
2023-03-05T18:33:33.157Z,101011.22
2023-03-05T18:36:06.079Z,101013.50
2023-03-05T18:38:38.596Z,101002.56
2023-03-05T18:41:20.668Z,101009.91
2023-03-05T18:43:54.569Z,101013.34
2023-03-05T18:46:26.633Z,101009.75
2023-03-05T18:48:58.597Z,101002.56
2023-03-05T18:51:30.760Z,100988.38
2023-03-05T18:54:03.549Z,100990.50
2023-03-05T18:56:35.855Z,100991.28
2023-03-05T18:59:07.857Z,100990.97
2023-03-05T19:01:40.000Z,100993.44
2023-03-05T19:04:12.093Z,100984.69
2023-03-05T19:06:44.152Z,100985.59
2023-03-05T19:10:07.430Z,100987.91
2023-03-05T19:13:40.409Z,100995.78
2023-03-05T19:16:26.728Z,100988.69
2023-03-05T19:19:24.403Z,100982.50
2023-03-05T19:21:59.736Z,100973.88
2023-03-05T19:24:32.498Z,100966.75
2023-03-05T19:27:11.095Z,100982.84
2023-03-05T19:29:43.965Z,100979.25
2023-03-05T19:32:18.288Z,100956.28
2023-03-05T19:34:54.396Z,100951.94
2023-03-05T19:37:26.724Z,100960.91
2023-03-05T19:39:58.817Z,100958.22
2023-03-05T19:42:30.922Z,100944.03
2023-03-05T19:45:03.150Z,100946.00
2023-03-05T19:47:35.158Z,100940.28
2023-03-05T19:50:08.484Z,100947.03
2023-03-05T19:52:40.417Z,100937.28
2023-03-05T19:55:12.406Z,100946.16
2023-03-05T19:57:44.458Z,100940.09
2023-03-05T20:00:17.144Z,100937.97
2023-03-05T20:02:49.080Z,100930.25
2023-03-05T20:05:23.130Z,100938.19
2023-03-05T20:07:55.073Z,100934.41
2023-03-05T20:10:27.415Z,100928.47
2023-03-05T20:12:59.605Z,100930.91
2023-03-05T20:15:32.662Z,100919.50
2023-03-05T20:18:04.757Z,100927.56
2023-03-05T20:20:36.810Z,100918.75
2023-03-05T20:23:08.741Z,100919.50
2023-03-05T20:25:40.681Z,100899.13
2023-03-05T20:28:12.649Z,100920.72
2023-03-05T20:30:44.596Z,100904.44
2023-03-05T20:33:16.548Z,100914.19
2023-03-05T20:35:48.793Z,100905.72
2023-03-05T20:38:26.100Z,100910.94
2023-03-05T20:41:02.073Z,100897.06
2023-03-05T20:43:38.149Z,100896.16
2023-03-05T20:46:20.789Z,100894.47
2023-03-05T20:48:57.647Z,100885.00
2023-03-05T20:51:37.876Z,100882.88
2023-03-05T20:54:13.206Z,100889.50
2023-03-05T20:56:45.230Z,100894.56
2023-03-05T20:59:17.655Z,100886.47
2023-03-05T21:01:49.641Z,100887.13
2023-03-05T21:04:21.692Z,100881.81
2023-03-05T21:06:54.249Z,100875.66
2023-03-05T21:09:28.381Z,100877.00
2023-03-05T21:12:00.853Z,100877.50
2023-03-05T21:14:37.610Z,100880.38
2023-03-05T21:17:09.720Z,100875.25
2023-03-05T21:19:41.791Z,100865.47
2023-03-05T21:22:13.784Z,100848.25
2023-03-05T21:25:24.786Z,100864.81
2023-03-05T21:28:00.310Z,100852.41
2023-03-05T21:30:49.995Z,100861.28
2023-03-05T21:33:26.496Z,100853.31
2023-03-05T21:35:58.466Z,100855.88
2023-03-05T21:38:30.901Z,100853.09
2023-03-05T21:41:04.692Z,100839.56
2023-03-05T21:43:36.671Z,100847.06
2023-03-05T21:46:08.842Z,100854.16
2023-03-05T21:48:40.913Z,100852.94
2023-03-05T21:52:11.695Z,100843.81
2023-03-05T21:54:44.051Z,100841.84
2023-03-05T21:57:16.003Z,100836.88
2023-03-05T21:59:48.136Z,100832.47
2023-03-05T22:02:21.948Z,100828.22
2023-03-05T22:04:53.940Z,100825.56
2023-03-05T22:07:26.709Z,100819.34
2023-03-05T22:09:59.355Z,100780.88
2023-03-05T22:13:11.858Z,100813.03
2023-03-05T22:15:56.308Z,100813.34
2023-03-05T22:18:31.064Z,100803.31
2023-03-05T22:21:04.433Z,100802.72
2023-03-05T22:23:36.841Z,100801.75
2023-03-05T22:26:09.019Z,100800.94
2023-03-05T22:28:42.524Z,100789.47
2023-03-05T22:31:21.987Z,100789.47
2023-03-05T22:33:54.179Z,100787.66
2023-03-05T22:36:26.321Z,100786.75
2023-03-05T22:38:58.292Z,100771.78
2023-03-05T22:41:30.408Z,100780.59
2023-03-05T22:44:02.412Z,100777.13
2023-03-05T22:46:34.373Z,100764.94
2023-03-05T22:49:06.340Z,100765.91
2023-03-05T22:51:38.285Z,100767.22
2023-03-05T22:54:10.252Z,100761.19
2023-03-05T22:56:42.206Z,100758.75
2023-03-05T22:59:14.143Z,100754.38
2023-03-05T23:01:46.080Z,100754.19
2023-03-05T23:04:50.154Z,100745.91
2023-03-05T23:07:27.011Z,100731.50
2023-03-05T23:10:22.354Z,100743.56
2023-03-05T23:12:57.748Z,100738.44
2023-03-05T23:15:37.029Z,100730.19
2023-03-05T23:18:09.060Z,100729.66
2023-03-05T23:20:41.844Z,100739.22
2023-03-05T23:23:13.872Z,100737.53
2023-03-05T23:25:46.092Z,100733.06
2023-03-05T23:28:20.098Z,100732.00
2023-03-05T23:30:52.022Z,100728.34
2023-03-05T23:33:25.161Z,100726.22
2023-03-05T23:36:00.214Z,100725.03
2023-03-05T23:38:32.377Z,100732.09
2023-03-05T23:41:11.154Z,100724.91
2023-03-05T23:43:43.094Z,100675.63
2023-03-05T23:46:15.064Z,100720.25
2023-03-05T23:48:47.057Z,100716.94
2023-03-05T23:51:19.293Z,100716.94
2023-03-05T23:53:51.235Z,100705.56
2023-03-05T23:56:23.208Z,100710.13
2023-03-05T23:59:00.478Z,100709.22
